createdAt,value
2022-09-20T00:01:23.109Z,10.60
2022-09-20T00:03:53.639Z,10.60
2022-09-20T00:06:23.202Z,10.60
2022-09-20T00:08:50.622Z,10.60
2022-09-20T00:11:23.250Z,10.60
2022-09-20T00:13:53.424Z,10.60
2022-09-20T00:16:41.417Z,10.60
2022-09-20T00:19:10.811Z,10.70
2022-09-20T00:21:37.944Z,10.60
2022-09-20T00:24:06.095Z,10.70
2022-09-20T00:26:33.403Z,10.70
2022-09-20T00:32:20.100Z,10.70
2022-09-20T00:35:05.408Z,10.80
2022-09-20T00:37:32.381Z,10.80
2022-09-20T00:39:59.266Z,10.80
2022-09-20T00:42:31.119Z,10.90
2022-09-20T00:45:03.566Z,10.90
2022-09-20T00:47:44.732Z,10.90
2022-09-20T00:50:30.295Z,10.90
2022-09-20T00:53:05.977Z,10.90
2022-09-20T00:55:35.087Z,10.90
2022-09-20T00:58:02.301Z,11.00
2022-09-20T01:00:29.648Z,11.00
2022-09-20T01:03:03.508Z,11.00
2022-09-20T01:05:30.397Z,11.10
2022-09-20T01:07:57.553Z,11.10
2022-09-20T01:10:24.559Z,11.10
2022-09-20T01:12:53.722Z,11.10
2022-09-20T01:15:23.313Z,11.10
2022-09-20T01:17:53.700Z,11.20
2022-09-20T01:20:38.950Z,11.20
2022-09-20T01:23:24.483Z,11.20
2022-09-20T01:26:10.204Z,11.20
2022-09-20T01:28:39.110Z,11.20
2022-09-20T01:31:33.485Z,11.20
2022-09-20T01:34:21.527Z,11.30
2022-09-20T01:37:02.669Z,11.30
2022-09-20T01:40:02.877Z,11.30
2022-09-20T01:42:36.592Z,11.30
2022-09-20T01:45:09.855Z,11.30
2022-09-20T01:47:48.795Z,11.40
2022-09-20T01:50:30.261Z,11.40
2022-09-20T01:53:21.485Z,11.40
2022-09-20T01:56:07.056Z,11.40
2022-09-20T01:59:22.132Z,11.40
2022-09-20T02:01:53.891Z,11.40
2022-09-20T02:04:42.696Z,11.40
2022-09-20T02:07:28.445Z,11.50
2022-09-20T02:10:32.504Z,11.50
2022-09-20T02:13:04.596Z,11.50
2022-09-20T02:15:59.123Z,11.50
2022-09-20T02:18:26.064Z,11.50
2022-09-20T02:21:05.612Z,11.60
2022-09-20T02:23:41.952Z,11.60
2022-09-20T02:26:28.677Z,11.60
2022-09-20T02:29:10.360Z,11.60
2022-09-20T02:31:57.526Z,11.60
2022-09-20T02:34:50.106Z,11.60
2022-09-20T02:37:51.014Z,11.60
2022-09-20T02:41:00.784Z,11.70
2022-09-20T02:43:44.853Z,11.70
2022-09-20T02:46:42.060Z,11.70
2022-09-20T02:49:50.739Z,11.70
2022-09-20T02:52:49.159Z,11.80
2022-09-20T02:55:42.158Z,11.70
2022-09-20T02:58:20.822Z,11.70
2022-09-20T03:01:07.644Z,11.80
2022-09-20T03:03:54.694Z,11.80
2022-09-20T03:06:43.759Z,11.80
2022-09-20T03:09:34.039Z,11.80
2022-09-20T03:12:22.457Z,11.80
2022-09-20T03:15:26.827Z,11.90
2022-09-20T03:18:16.139Z,11.90
2022-09-20T03:20:45.807Z,11.90
2022-09-20T03:23:34.043Z,11.90
2022-09-20T03:26:27.952Z,11.90
2022-09-20T03:29:08.743Z,11.90
2022-09-20T03:32:04.102Z,11.90
2022-09-20T03:34:37.058Z,11.90
2022-09-20T03:37:17.115Z,11.90
2022-09-20T03:40:17.757Z,11.90
2022-09-20T03:42:51.519Z,11.90
2022-09-20T03:45:54.264Z,11.90
2022-09-20T03:48:46.932Z,11.90
2022-09-20T03:51:14.087Z,11.90
2022-09-20T03:53:51.191Z,11.90
2022-09-20T03:56:29.456Z,11.90
2022-09-20T03:59:29.796Z,11.90
2022-09-20T04:02:33.345Z,11.90
2022-09-20T04:05:09.836Z,11.90
2022-09-20T04:07:59.768Z,11.90
2022-09-20T04:10:53.225Z,11.90
2022-09-20T04:13:44.520Z,11.90
2022-09-20T04:16:37.865Z,11.90
2022-09-20T04:19:21.809Z,11.90
2022-09-20T04:22:02.296Z,11.90
2022-09-20T04:24:43.076Z,11.90
2022-09-20T04:27:20.420Z,11.90
2022-09-20T04:29:51.725Z,11.90
2022-09-20T04:32:42.406Z,11.90
2022-09-20T04:35:54.476Z,12.00
2022-09-20T04:38:22.114Z,12.00
2022-09-20T04:40:57.840Z,11.90
2022-09-20T04:43:36.513Z,11.90
2022-09-20T04:46:29.172Z,12.00
2022-09-20T04:49:15.440Z,11.90
2022-09-20T04:52:11.477Z,12.00
2022-09-20T04:54:59.992Z,12.00
2022-09-20T04:58:00.571Z,12.00
2022-09-20T05:00:57.825Z,12.00
2022-09-20T05:03:27.488Z,12.00
2022-09-20T05:06:16.069Z,12.00
2022-09-20T05:09:08.247Z,12.00
2022-09-20T05:12:05.770Z,12.00
2022-09-20T05:14:53.455Z,12.00
2022-09-20T05:17:34.500Z,12.00
2022-09-20T05:20:13.470Z,12.00
2022-09-20T05:23:07.948Z,12.00
2022-09-20T05:26:03.480Z,12.10
2022-09-20T05:29:03.943Z,12.10
2022-09-20T05:31:51.765Z,12.10
2022-09-20T05:34:42.366Z,12.00
2022-09-20T05:37:21.738Z,12.00
2022-09-20T05:40:22.679Z,12.00
2022-09-20T05:42:55.764Z,12.10
2022-09-20T05:46:04.714Z,12.10
2022-09-20T05:48:47.967Z,12.10
2022-09-20T05:51:45.791Z,12.10
2022-09-20T05:54:33.827Z,12.00
2022-09-20T05:57:25.125Z,12.10
2022-09-20T06:00:07.074Z,12.10
2022-09-20T06:02:48.462Z,12.10
2022-09-20T06:05:29.541Z,12.10
2022-09-20T06:08:20.643Z,12.10
2022-09-20T06:11:01.937Z,12.10
2022-09-20T06:14:01.136Z,12.20
2022-09-20T06:17:04.709Z,12.20
2022-09-20T06:19:37.357Z,12.10
2022-09-20T06:22:28.474Z,12.10
2022-09-20T06:25:07.510Z,12.10
2022-09-20T06:27:53.869Z,12.10
2022-09-20T06:30:31.484Z,12.10
2022-09-20T06:33:06.383Z,12.20
2022-09-20T06:36:30.417Z,12.20
2022-09-20T06:39:34.952Z,12.20
2022-09-20T06:42:02.263Z,12.20
2022-09-20T06:44:29.477Z,12.10
2022-09-20T06:46:56.424Z,12.20
2022-09-20T06:49:24.307Z,12.20
2022-09-20T06:51:52.539Z,12.20
2022-09-20T06:54:21.933Z,12.20
2022-09-20T06:56:50.608Z,12.20
2022-09-20T06:59:17.509Z,12.20
2022-09-20T07:01:45.120Z,12.30
2022-09-20T07:04:12.107Z,12.30
2022-09-20T07:06:39.162Z,12.30
2022-09-20T07:09:06.584Z,12.30
2022-09-20T07:11:34.210Z,12.30
2022-09-20T07:14:01.756Z,12.30
2022-09-20T07:16:29.043Z,12.30
2022-09-20T07:18:56.901Z,12.40
2022-09-20T07:21:24.357Z,12.40
2022-09-20T07:23:51.626Z,12.40
2022-09-20T07:26:25.851Z,12.40
2022-09-20T07:28:53.744Z,12.50
2022-09-20T07:31:22.956Z,12.50
2022-09-20T07:33:50.058Z,12.50
2022-09-20T07:36:17.288Z,12.60
2022-09-20T07:38:48.652Z,12.60
2022-09-20T07:41:15.604Z,12.70
2022-09-20T07:43:42.514Z,12.70
2022-09-20T07:46:12.134Z,12.80
2022-09-20T07:48:39.647Z,12.90
2022-09-20T07:51:12.811Z,12.90
2022-09-20T07:53:40.813Z,12.90
2022-09-20T07:56:15.993Z,13.00
2022-09-20T07:58:48.671Z,13.00
2022-09-20T08:01:19.958Z,13.10
2022-09-20T08:03:47.127Z,13.20
2022-09-20T08:06:18.512Z,13.20
2022-09-20T08:08:45.529Z,13.30
2022-09-20T08:11:15.515Z,13.30
2022-09-20T08:16:42.655Z,13.40
2022-09-20T08:19:23.350Z,13.40
2022-09-20T08:21:52.649Z,13.50
2022-09-20T08:24:19.689Z,13.50
2022-09-20T08:26:46.810Z,13.60
2022-09-20T08:29:15.347Z,13.70
2022-09-20T08:31:42.834Z,13.70
2022-09-20T08:34:12.756Z,13.80
2022-09-20T08:36:42.456Z,13.90
2022-09-20T08:41:58.975Z,14.00
2022-09-20T08:44:58.565Z,14.10
2022-09-20T08:47:29.794Z,14.10
2022-09-20T08:49:57.947Z,14.20
2022-09-20T08:52:37.654Z,14.30
2022-09-20T08:55:18.009Z,14.40
2022-09-20T08:57:49.299Z,14.40
2022-09-20T09:00:22.448Z,14.50
2022-09-20T09:02:54.199Z,14.50
2022-09-20T09:05:44.330Z,14.60
2022-09-20T09:08:16.651Z,14.60
2022-09-20T09:10:53.149Z,14.70
2022-09-20T09:13:42.452Z,14.80
2022-09-20T09:16:22.646Z,14.80
2022-09-20T09:18:52.187Z,14.90
2022-09-20T09:21:29.026Z,15.00
2022-09-20T09:24:09.469Z,15.10
2022-09-20T09:26:43.357Z,15.10
2022-09-20T09:29:20.906Z,15.20
2022-09-20T09:31:51.845Z,15.30
2022-09-20T09:34:33.501Z,15.30
2022-09-20T09:37:00.521Z,15.40
2022-09-20T09:39:38.188Z,15.40
2022-09-20T09:42:28.834Z,15.40
2022-09-20T09:45:24.140Z,15.50
2022-09-20T09:47:51.061Z,15.50
2022-09-20T09:50:34.768Z,15.50
2022-09-20T09:53:11.487Z,15.60
2022-09-20T09:56:14.258Z,15.70
2022-09-20T09:59:21.746Z,15.70
2022-09-20T10:02:20.417Z,15.80
2022-09-20T10:04:59.499Z,15.80
2022-09-20T10:07:38.191Z,15.90
2022-09-20T10:10:21.193Z,15.90
2022-09-20T10:12:52.831Z,15.90
2022-09-20T10:15:30.929Z,16.10
2022-09-20T10:18:42.641Z,16.20
2022-09-20T10:21:23.189Z,16.40
2022-09-20T10:24:22.028Z,16.50
2022-09-20T10:26:51.819Z,16.60
2022-09-20T10:29:43.197Z,16.80
2022-09-20T10:32:33.061Z,16.90
2022-09-20T10:35:27.735Z,17.10
2022-09-20T10:38:14.685Z,17.30
2022-09-20T10:41:06.062Z,17.40
2022-09-20T10:44:09.691Z,17.60
2022-09-20T10:47:01.030Z,17.70
2022-09-20T10:49:34.787Z,17.90
2022-09-20T10:52:36.235Z,17.90
2022-09-20T10:55:41.290Z,17.90
2022-09-20T10:58:43.798Z,17.90
2022-09-20T11:01:49.587Z,18.00
2022-09-20T11:04:35.254Z,18.10
2022-09-20T11:07:32.776Z,18.20
2022-09-20T11:10:15.048Z,18.40
2022-09-20T11:12:49.121Z,18.40
2022-09-20T11:15:38.603Z,18.40
2022-09-20T11:18:13.892Z,18.40
2022-09-20T11:20:47.381Z,18.50
2022-09-20T11:23:21.091Z,18.50
2022-09-20T11:26:21.244Z,18.50
2022-09-20T11:28:56.027Z,18.50
2022-09-20T11:31:36.360Z,18.50
2022-09-20T11:34:32.887Z,18.60
2022-09-20T11:37:03.267Z,18.70
2022-09-20T11:39:54.621Z,18.80
2022-09-20T11:42:26.513Z,18.90
2022-09-20T11:44:54.734Z,18.90
2022-09-20T11:47:53.312Z,18.90
2022-09-20T11:50:45.173Z,18.90
2022-09-20T11:53:32.165Z,18.90
2022-09-20T11:56:18.722Z,19.00
2022-09-20T11:58:59.868Z,19.20
2022-09-20T12:01:35.663Z,19.30
2022-09-20T12:07:10.336Z,19.30
2022-09-20T12:09:42.526Z,19.40
2022-09-20T12:12:30.635Z,19.40
2022-09-20T12:15:00.428Z,19.50
2022-09-20T12:17:46.109Z,19.50
2022-09-20T12:20:44.911Z,19.60
2022-09-20T12:23:42.995Z,19.60
2022-09-20T12:26:37.029Z,19.50
2022-09-20T12:29:26.717Z,19.50
2022-09-20T12:31:57.115Z,19.50
2022-09-20T12:34:26.790Z,19.60
2022-09-20T12:36:53.634Z,19.60
2022-09-20T12:39:29.909Z,19.70
2022-09-20T12:42:11.476Z,19.90
2022-09-20T12:44:49.228Z,19.90
2022-09-20T12:47:23.437Z,20.10
2022-09-20T12:50:11.337Z,20.30
2022-09-20T12:53:03.870Z,20.40
2022-09-20T12:55:43.720Z,20.40
2022-09-20T12:58:14.417Z,20.40
2022-09-20T13:00:47.547Z,20.40
2022-09-20T13:03:34.888Z,20.40
2022-09-20T13:06:14.822Z,20.20
2022-09-20T13:08:49.706Z,20.10
2022-09-20T13:11:52.537Z,20.10
2022-09-20T13:14:31.421Z,20.10
2022-09-20T13:17:12.291Z,20.10
2022-09-20T13:19:44.351Z,20.10
2022-09-20T13:22:34.609Z,20.30
2022-09-20T13:25:05.637Z,20.40
2022-09-20T13:27:39.660Z,20.40
2022-09-20T13:30:22.095Z,20.40
2022-09-20T13:32:51.543Z,20.50
2022-09-20T13:35:33.044Z,20.60
2022-09-20T13:38:11.493Z,20.70
2022-09-20T13:40:43.726Z,20.70
2022-09-20T13:43:32.629Z,20.80
2022-09-20T13:46:07.486Z,20.90
2022-09-20T13:48:34.993Z,21.00
2022-09-20T13:51:02.457Z,21.10
2022-09-20T13:53:41.400Z,21.10
2022-09-20T13:56:30.032Z,21.30
2022-09-20T13:59:00.945Z,21.30
2022-09-20T14:01:35.788Z,21.30
2022-09-20T14:04:15.193Z,21.40
2022-09-20T14:06:42.798Z,21.40
2022-09-20T14:09:28.769Z,21.30
2022-09-20T14:11:58.616Z,21.40
2022-09-20T14:14:26.693Z,21.40
2022-09-20T14:16:56.447Z,21.40
2022-09-20T14:19:32.047Z,21.40
2022-09-20T14:22:06.273Z,21.40
2022-09-20T14:24:35.728Z,21.40
2022-09-20T14:27:19.121Z,21.40
2022-09-20T14:29:51.044Z,21.50
2022-09-20T14:32:24.752Z,21.50
2022-09-20T14:35:03.186Z,21.60
2022-09-20T14:37:29.983Z,21.60
2022-09-20T14:39:58.278Z,21.60
2022-09-20T14:42:35.264Z,21.60
2022-09-20T14:45:03.454Z,21.60
2022-09-20T14:47:52.141Z,21.60
2022-09-20T14:50:23.250Z,21.60
2022-09-20T14:53:02.957Z,21.60
2022-09-20T14:55:36.480Z,21.60
2022-09-20T14:58:09.981Z,21.60
2022-09-20T15:00:53.934Z,21.60
2022-09-20T15:03:25.832Z,21.50
2022-09-20T15:05:52.720Z,21.40
2022-09-20T15:08:20.393Z,21.40
2022-09-20T15:10:47.856Z,21.40
2022-09-20T15:13:15.202Z,21.20
2022-09-20T15:15:44.334Z,21.20
2022-09-20T15:18:18.126Z,21.10
2022-09-20T15:20:44.960Z,21.00
2022-09-20T15:23:11.703Z,20.90
2022-09-20T15:25:38.506Z,20.90
2022-09-20T15:28:05.322Z,20.80
2022-09-20T15:30:32.183Z,20.70
2022-09-20T15:33:02.853Z,20.60
2022-09-20T15:35:30.062Z,20.60
2022-09-20T15:37:56.823Z,20.50
2022-09-20T15:40:24.856Z,20.40
2022-09-20T15:42:55.119Z,20.40
2022-09-20T15:45:23.237Z,20.30
2022-09-20T15:47:50.117Z,20.20
2022-09-20T15:50:17.359Z,20.10
2022-09-20T15:52:44.123Z,20.00
2022-09-20T15:55:12.112Z,19.90
2022-09-20T15:57:41.897Z,19.80
2022-09-20T16:00:08.958Z,19.70
2022-09-20T16:02:35.907Z,19.60
2022-09-20T16:05:03.186Z,19.50
2022-09-20T16:07:30.019Z,19.40
2022-09-20T16:09:57.376Z,19.30
2022-09-20T16:12:24.805Z,19.20
2022-09-20T16:14:51.618Z,19.10
2022-09-20T16:17:18.455Z,19.10
2022-09-20T16:19:48.747Z,19.00
2022-09-20T16:22:16.163Z,18.90
2022-09-20T16:24:42.999Z,18.80
2022-09-20T16:27:09.847Z,18.70
2022-09-20T16:29:36.680Z,18.60
2022-09-20T16:32:03.901Z,18.40
2022-09-20T16:34:32.143Z,18.30
2022-09-20T16:37:17.601Z,18.30
2022-09-20T16:39:44.494Z,18.20
2022-09-20T16:42:12.430Z,18.10
2022-09-20T16:44:40.347Z,18.00
2022-09-20T16:47:08.869Z,17.90
2022-09-20T16:49:36.280Z,17.90
2022-09-20T16:52:06.907Z,17.80
2022-09-20T16:54:33.905Z,17.70
2022-09-20T16:57:01.213Z,17.70
2022-09-20T16:59:28.141Z,17.60
2022-09-20T17:01:55.117Z,17.50
2022-09-20T17:04:22.022Z,17.50
2022-09-20T17:06:49.531Z,17.40
2022-09-20T17:09:16.794Z,17.40
2022-09-20T17:11:46.059Z,17.40
2022-09-20T17:14:13.763Z,17.40
2022-09-20T17:16:41.574Z,17.40
2022-09-20T17:19:12.644Z,17.30
2022-09-20T17:21:40.774Z,17.30
2022-09-20T17:24:07.698Z,17.20
2022-09-20T17:26:36.824Z,17.20
2022-09-20T17:29:05.824Z,17.20
2022-09-20T17:31:34.300Z,17.10
2022-09-20T17:34:02.288Z,17.10
2022-09-20T17:36:30.275Z,17.00
2022-09-20T17:39:02.966Z,17.00
2022-09-20T17:41:30.953Z,17.00
2022-09-20T17:43:58.411Z,16.90
2022-09-20T17:46:31.667Z,16.90
2022-09-20T17:49:01.113Z,16.90
2022-09-20T17:51:30.117Z,16.90
2022-09-20T17:53:57.030Z,16.80
2022-09-20T17:56:28.453Z,16.80
2022-09-20T17:58:56.787Z,16.70
2022-09-20T18:01:23.713Z,16.70
2022-09-20T18:03:50.629Z,16.60
2022-09-20T18:06:20.243Z,16.60
2022-09-20T18:08:50.994Z,16.50
2022-09-20T18:11:19.586Z,16.50
2022-09-20T18:13:46.689Z,16.40
2022-09-20T18:16:14.529Z,16.40
2022-09-20T18:18:42.391Z,16.40
2022-09-20T18:21:16.076Z,16.40
2022-09-20T18:23:43.712Z,16.30
2022-09-20T18:26:23.704Z,16.20
2022-09-20T18:28:57.781Z,16.20
2022-09-20T18:31:26.637Z,16.10
2022-09-20T18:33:54.231Z,16.10
2022-09-20T18:36:21.130Z,16.00
2022-09-20T18:38:48.023Z,16.00
2022-09-20T18:41:14.865Z,15.90
2022-09-20T18:43:44.395Z,15.90
2022-09-20T18:46:12.153Z,15.80
2022-09-20T18:48:39.846Z,15.80
2022-09-20T18:51:07.512Z,15.80
2022-09-20T18:53:35.941Z,15.70
2022-09-20T18:56:10.230Z,15.70
2022-09-20T18:58:39.727Z,15.60
2022-09-20T19:01:25.422Z,15.60
2022-09-20T19:04:12.836Z,15.50
2022-09-20T19:07:02.855Z,15.40
2022-09-20T19:09:49.877Z,15.40
2022-09-20T19:12:19.343Z,15.30
2022-09-20T19:43:28.502Z,14.80
2022-09-20T19:46:13.937Z,14.70
2022-09-20T19:48:45.790Z,14.70
2022-09-20T19:51:12.900Z,14.60
2022-09-20T19:53:39.995Z,14.60
2022-09-20T19:56:21.370Z,14.60
2022-09-20T19:58:52.941Z,14.50
2022-09-20T20:01:24.006Z,14.50
2022-09-20T20:03:51.664Z,14.40
2022-09-20T20:06:27.400Z,14.40
2022-09-20T20:09:12.876Z,14.40
2022-09-20T20:11:47.364Z,14.40
2022-09-20T20:14:20.019Z,14.40
2022-09-20T20:17:04.890Z,14.30
2022-09-20T20:19:34.746Z,14.30
2022-09-20T20:22:08.310Z,14.20
2022-09-20T20:24:47.266Z,14.20
2022-09-20T20:27:14.227Z,14.20
2022-09-20T20:29:41.280Z,14.10
2022-09-20T20:32:08.207Z,14.10
2022-09-20T20:34:37.208Z,14.00
2022-09-20T20:37:04.590Z,14.00
2022-09-20T20:39:32.041Z,14.00
2022-09-20T20:42:02.360Z,14.00
2022-09-20T20:44:30.309Z,13.90
2022-09-20T20:46:57.404Z,13.90
2022-09-20T20:49:24.914Z,13.90
2022-09-20T20:51:51.705Z,13.90
2022-09-20T20:54:18.639Z,13.90
2022-09-20T20:56:45.462Z,13.80
2022-09-20T20:59:12.315Z,13.80
2022-09-20T21:01:43.934Z,13.80
2022-09-20T21:04:11.661Z,13.70
2022-09-20T21:06:40.679Z,13.70
2022-09-20T21:09:08.246Z,13.70
2022-09-20T21:11:39.071Z,13.60
2022-09-20T21:14:07.338Z,13.60
2022-09-20T21:16:38.002Z,13.50
2022-09-20T21:19:05.812Z,13.50
2022-09-20T21:21:33.925Z,13.50
2022-09-20T21:24:02.194Z,13.40
2022-09-20T21:26:31.989Z,13.40
2022-09-20T21:29:02.637Z,13.40
2022-09-20T21:31:31.219Z,13.40
2022-09-20T21:33:58.113Z,13.40
2022-09-20T21:36:26.283Z,13.40
2022-09-20T21:38:53.980Z,13.30
2022-09-20T21:41:25.042Z,13.30
2022-09-20T21:43:53.284Z,13.30
2022-09-20T21:46:21.244Z,13.20
2022-09-20T21:48:48.769Z,13.20
2022-09-20T21:51:16.794Z,13.20
2022-09-20T21:53:43.984Z,13.20
2022-09-20T21:56:15.551Z,13.10
2022-09-20T21:58:42.384Z,13.10
2022-09-20T22:01:14.183Z,13.10
2022-09-20T22:03:42.105Z,13.00
2022-09-20T22:06:10.425Z,13.00
2022-09-20T22:08:38.437Z,13.00
2022-09-20T22:11:05.508Z,12.90
2022-09-20T22:13:32.418Z,12.90
2022-09-20T22:16:04.951Z,12.90
2022-09-20T22:18:38.733Z,12.90
2022-09-20T22:21:07.236Z,12.80
2022-09-20T22:23:35.155Z,12.80
2022-09-20T22:26:03.268Z,12.80
2022-09-20T22:28:30.179Z,12.80
2022-09-20T22:31:01.955Z,12.70
2022-09-20T22:33:28.939Z,12.70
2022-09-20T22:35:55.726Z,12.70
2022-09-20T22:38:22.902Z,12.60
2022-09-20T22:40:53.858Z,12.70
2022-09-20T22:43:20.702Z,12.60
2022-09-20T22:45:47.649Z,12.60
2022-09-20T22:48:14.578Z,12.60
2022-09-20T22:50:41.367Z,12.60
2022-09-20T22:53:08.250Z,12.60
2022-09-20T22:55:35.064Z,12.60
2022-09-20T22:58:01.903Z,12.60
2022-09-20T23:00:28.740Z,12.60
2022-09-20T23:03:01.654Z,12.60
2022-09-20T23:05:28.545Z,12.60
2022-09-20T23:07:55.421Z,12.50
2022-09-20T23:10:22.406Z,12.50
2022-09-20T23:12:52.335Z,12.50
2022-09-20T23:15:19.433Z,12.50
2022-09-20T23:17:46.328Z,12.50
2022-09-20T23:20:13.346Z,12.40
2022-09-20T23:22:40.187Z,12.40
2022-09-20T23:25:07.339Z,12.40
2022-09-20T23:27:34.164Z,12.40
2022-09-20T23:30:01.319Z,12.30
2022-09-20T23:32:28.205Z,12.30
2022-09-20T23:34:55.120Z,12.30
2022-09-20T23:37:21.966Z,12.20
2022-09-20T23:39:49.095Z,12.20
2022-09-20T23:42:15.898Z,12.20
2022-09-20T23:44:42.982Z,12.20
2022-09-20T23:47:09.942Z,12.10
2022-09-20T23:49:36.807Z,12.10
2022-09-20T23:52:03.671Z,12.10
2022-09-20T23:54:30.992Z,12.00
2022-09-20T23:56:57.802Z,12.00
2022-09-20T23:59:24.906Z,12.00
